createdAt,value
2019-04-05T00:00:10.596Z,12.50
2019-04-05T00:02:41.460Z,11.67
2019-04-05T00:05:10.929Z,11.57
2019-04-05T00:07:40.206Z,12.00
2019-04-05T00:10:09.699Z,11.93
2019-04-05T00:12:39.001Z,11.50
2019-04-05T00:15:15.461Z,12.57
2019-04-05T00:17:39.742Z,12.80
2019-04-05T00:20:09.945Z,11.77
2019-04-05T00:22:39.281Z,12.50
2019-04-05T00:25:08.554Z,11.30
2019-04-05T00:27:37.811Z,11.87
2019-04-05T00:30:08.281Z,11.43
2019-04-05T00:32:37.580Z,11.43
2019-04-05T00:35:07.050Z,12.10
2019-04-05T00:37:36.332Z,11.77
2019-04-05T00:40:06.424Z,11.97
2019-04-05T00:42:35.696Z,12.07
2019-04-05T00:45:05.790Z,10.70
2019-04-05T00:47:35.091Z,11.90
2019-04-05T00:50:04.699Z,11.27
2019-04-05T00:52:33.983Z,10.83
2019-04-05T00:55:03.812Z,12.10
2019-04-05T00:57:33.153Z,10.90
2019-04-05T01:00:02.469Z,12.07
2019-04-05T01:02:31.792Z,11.27
2019-04-05T01:05:01.119Z,11.30
2019-04-05T01:07:30.408Z,11.77
2019-04-05T01:10:00.832Z,11.47
2019-04-05T01:12:32.018Z,12.47
2019-04-05T01:15:01.687Z,10.90
2019-04-05T01:17:31.004Z,11.63
2019-04-05T01:20:03.153Z,12.10
2019-04-05T01:22:35.134Z,11.77
2019-04-05T01:25:05.235Z,11.57
2019-04-05T01:27:37.451Z,11.33
2019-04-05T01:30:08.137Z,11.50
2019-04-05T01:32:37.478Z,11.60
2019-04-05T01:35:07.235Z,11.30
2019-04-05T01:37:37.269Z,11.90
2019-04-05T01:40:08.120Z,11.40
2019-04-05T01:42:38.710Z,12.73
2019-04-05T01:45:09.472Z,11.50
2019-04-05T01:47:38.755Z,12.33
2019-04-05T01:50:08.893Z,11.83
2019-04-05T01:52:38.706Z,11.97
2019-04-05T01:55:09.239Z,12.67
2019-04-05T01:57:38.544Z,13.00
2019-04-05T02:00:09.664Z,11.83
2019-04-05T02:02:38.970Z,11.87
2019-04-05T02:05:09.156Z,12.37
2019-04-05T02:07:38.945Z,12.97
2019-04-05T02:10:09.435Z,12.07
2019-04-05T02:12:39.160Z,12.20
2019-04-05T02:15:09.139Z,12.40
2019-04-05T02:17:38.607Z,12.53
2019-04-05T02:20:09.099Z,12.37
2019-04-05T02:22:38.515Z,13.37
2019-04-05T02:25:08.518Z,13.60
2019-04-05T02:27:37.824Z,13.80
2019-04-05T02:30:07.812Z,13.30
2019-04-05T02:32:37.097Z,12.77
2019-04-05T02:35:06.969Z,13.20
2019-04-05T02:37:36.318Z,13.63
2019-04-05T02:40:07.973Z,13.80
2019-04-05T02:42:38.610Z,13.53
2019-04-05T02:45:09.708Z,14.43
2019-04-05T02:47:41.625Z,14.40
2019-04-05T02:50:12.546Z,15.13
2019-04-05T02:52:44.946Z,14.80
2019-04-05T02:55:14.353Z,14.90
2019-04-05T02:57:46.283Z,15.10
2019-04-05T03:00:16.795Z,14.97
2019-04-05T03:02:54.961Z,15.20
2019-04-05T03:05:25.261Z,15.17
2019-04-05T03:07:54.691Z,15.23
2019-04-05T03:10:49.645Z,14.57
2019-04-05T03:13:20.751Z,15.90
2019-04-05T03:15:50.611Z,15.00
2019-04-05T03:18:20.420Z,15.13
2019-04-05T03:20:49.759Z,15.40
2019-04-05T03:23:19.568Z,15.63
2019-04-05T03:25:49.645Z,15.57
2019-04-05T03:28:19.542Z,16.20
2019-04-05T03:30:49.148Z,15.27
2019-04-05T03:33:18.573Z,15.63
2019-04-05T03:35:47.990Z,16.53
2019-04-05T03:38:18.110Z,16.90
2019-04-05T03:40:48.045Z,16.37
2019-04-05T03:43:17.518Z,15.90
2019-04-05T03:45:47.156Z,16.40
2019-04-05T03:48:16.450Z,16.30
2019-04-05T03:50:46.030Z,17.43
2019-04-05T03:53:16.735Z,15.93
2019-04-05T03:55:45.987Z,17.00
2019-04-05T03:58:15.399Z,17.30
2019-04-05T04:00:44.820Z,17.37
2019-04-05T04:03:14.231Z,16.80
2019-04-05T04:05:43.760Z,16.63
2019-04-05T04:08:15.992Z,16.40
2019-04-05T04:10:47.794Z,17.83
2019-04-05T04:13:19.229Z,15.97
2019-04-05T04:15:48.640Z,16.90
2019-04-05T04:18:18.134Z,18.53
2019-04-05T04:20:50.867Z,18.70
2019-04-05T04:23:21.809Z,17.90
2019-04-05T04:25:52.015Z,18.47
2019-04-05T04:28:22.077Z,17.13
2019-04-05T04:30:52.134Z,17.63
2019-04-05T04:33:21.488Z,17.70
2019-04-05T04:35:53.010Z,18.10
2019-04-05T04:38:22.701Z,19.47
2019-04-05T04:40:52.015Z,17.90
2019-04-05T04:43:22.119Z,18.03
2019-04-05T04:45:51.727Z,19.63
2019-04-05T04:48:21.153Z,20.40
2019-04-05T04:50:50.859Z,20.50
2019-04-05T04:53:20.463Z,19.00
2019-04-05T04:55:51.069Z,19.40
2019-04-05T04:58:21.381Z,17.30
2019-04-05T05:00:52.944Z,18.43
2019-04-05T05:03:27.472Z,18.87
2019-04-05T05:05:59.647Z,17.83
2019-04-05T05:08:29.905Z,17.50
2019-04-05T05:11:14.046Z,17.77
2019-04-05T05:13:34.802Z,19.83
2019-04-05T05:16:05.296Z,18.73
2019-04-05T05:18:37.196Z,19.50
2019-04-05T05:21:08.000Z,18.93
2019-04-05T05:23:38.249Z,18.50
2019-04-05T05:26:08.225Z,20.43
2019-04-05T05:28:38.496Z,18.90
2019-04-05T05:31:09.665Z,19.77
2019-04-05T05:33:41.035Z,18.17
2019-04-05T05:36:12.637Z,17.37
2019-04-05T05:38:42.655Z,19.80
2019-04-05T05:41:12.593Z,18.47
2019-04-05T05:43:43.479Z,18.00
2019-04-05T05:46:12.784Z,18.70
2019-04-05T05:48:44.011Z,18.97
2019-04-05T05:51:14.923Z,17.60
2019-04-05T05:53:44.236Z,18.33
2019-04-05T05:56:13.540Z,17.90
2019-04-05T05:58:42.934Z,17.60
2019-04-05T06:01:13.229Z,17.77
2019-04-05T06:03:42.622Z,18.20
2019-04-05T06:06:13.359Z,16.47
2019-04-05T06:08:42.706Z,17.90
2019-04-05T06:11:11.958Z,16.83
2019-04-05T06:13:41.287Z,15.90
2019-04-05T06:16:10.587Z,15.77
2019-04-05T06:18:39.884Z,14.97
2019-04-05T06:21:09.211Z,15.63
2019-04-05T06:23:38.534Z,14.00
2019-04-05T06:26:07.865Z,13.43
2019-04-05T06:28:37.315Z,13.70
2019-04-05T06:31:06.701Z,13.17
2019-04-05T06:33:36.072Z,15.13
2019-04-05T06:36:05.990Z,15.07
2019-04-05T06:38:35.286Z,13.83
2019-04-05T06:41:04.681Z,14.07
2019-04-05T06:43:34.079Z,13.43
2019-04-05T06:46:03.443Z,13.90
2019-04-05T06:48:32.905Z,13.87
2019-04-05T06:51:02.194Z,14.20
2019-04-05T06:53:31.526Z,13.50
2019-04-05T06:56:00.840Z,13.33
2019-04-05T06:58:31.148Z,13.13
2019-04-05T07:01:02.201Z,13.83
2019-04-05T07:03:31.564Z,13.80
2019-04-05T07:06:02.337Z,13.87
2019-04-05T07:08:31.689Z,14.10
2019-04-05T07:11:01.003Z,12.93
2019-04-05T07:13:31.495Z,12.70
2019-04-05T07:16:00.903Z,12.73
2019-04-05T07:18:34.299Z,13.57
2019-04-05T07:21:01.209Z,12.93
2019-04-05T07:23:30.511Z,13.17
2019-04-05T07:25:59.812Z,14.20
2019-04-05T07:28:29.137Z,14.27
2019-04-05T07:30:58.421Z,13.40
2019-04-05T07:33:27.738Z,12.33
2019-04-05T07:35:57.027Z,12.27
2019-04-05T07:38:26.353Z,13.60
2019-04-05T07:40:55.646Z,13.37
2019-04-05T07:43:26.463Z,12.90
2019-04-05T07:45:55.861Z,12.47
2019-04-05T07:48:25.200Z,13.37
2019-04-05T07:50:57.232Z,12.40
2019-04-05T07:53:26.649Z,13.17
2019-04-05T07:55:57.046Z,12.77
2019-04-05T07:58:26.343Z,12.00
2019-04-05T08:00:56.838Z,12.17
2019-04-05T08:03:26.344Z,13.90
2019-04-05T08:05:56.052Z,13.13
2019-04-05T08:08:51.566Z,13.73
2019-04-05T08:11:23.287Z,12.37
2019-04-05T08:13:55.947Z,14.40
2019-04-05T08:16:25.366Z,13.60
2019-04-05T08:18:58.001Z,13.67
2019-04-05T08:21:27.470Z,14.07
2019-04-05T08:23:56.790Z,13.43
2019-04-05T08:26:26.111Z,14.20
2019-04-05T08:28:55.421Z,14.33
2019-04-05T08:31:24.754Z,13.67
2019-04-05T08:33:54.060Z,13.10
2019-04-05T08:36:23.413Z,13.37
2019-04-05T08:38:52.908Z,12.67
2019-04-05T08:41:22.222Z,12.20
2019-04-05T08:43:51.548Z,14.37
2019-04-05T08:46:20.847Z,14.53
2019-04-05T08:48:52.314Z,14.07
2019-04-05T08:51:21.210Z,13.80
2019-04-05T08:53:50.919Z,13.63
2019-04-05T08:56:20.246Z,13.27
2019-04-05T08:58:50.644Z,13.27
2019-04-05T09:01:19.971Z,13.63
2019-04-05T09:03:49.272Z,14.37
2019-04-05T09:06:18.583Z,14.03
2019-04-05T09:08:47.889Z,12.90
2019-04-05T09:11:17.210Z,14.10
2019-04-05T09:13:47.563Z,14.57
2019-04-05T09:16:18.683Z,13.40
2019-04-05T09:18:49.415Z,13.73
2019-04-05T09:21:18.970Z,12.33
2019-04-05T09:23:48.532Z,14.20
2019-04-05T09:26:19.035Z,13.50
2019-04-05T09:28:48.360Z,13.50
2019-04-05T09:31:17.629Z,16.13
2019-04-05T09:33:48.758Z,15.87
2019-04-05T09:36:18.055Z,15.07
2019-04-05T09:38:47.360Z,17.00
2019-04-05T09:41:16.679Z,19.20
2019-04-05T09:43:45.974Z,20.03
2019-04-05T09:46:15.284Z,20.53
2019-04-05T09:48:44.599Z,16.40
2019-04-05T09:51:13.926Z,16.20
2019-04-05T09:53:45.488Z,16.40
2019-04-05T09:56:14.912Z,17.10
2019-04-05T09:58:44.225Z,17.50
2019-04-05T10:01:13.520Z,17.50
2019-04-05T10:03:42.811Z,16.70
2019-04-05T10:06:12.161Z,16.67
2019-04-05T10:08:41.663Z,16.40
2019-04-05T10:11:11.024Z,16.10
2019-04-05T10:13:40.317Z,17.33
2019-04-05T10:16:09.665Z,16.53
2019-04-05T10:18:40.447Z,16.20
2019-04-05T10:21:09.689Z,17.27
2019-04-05T10:23:39.008Z,18.50
2019-04-05T10:26:08.353Z,17.13
2019-04-05T10:28:37.689Z,17.77
2019-04-05T10:31:06.995Z,16.97
2019-04-05T10:33:38.255Z,17.43
2019-04-05T10:36:07.551Z,16.40
2019-04-05T10:38:36.835Z,17.20
2019-04-05T10:41:06.321Z,15.83
2019-04-05T10:43:35.611Z,16.40
2019-04-05T10:46:05.618Z,16.33
2019-04-05T10:48:35.526Z,16.40
2019-04-05T10:51:05.227Z,16.73
2019-04-05T10:53:34.478Z,16.60
2019-04-05T10:56:03.924Z,15.57
2019-04-05T10:58:33.246Z,14.83
2019-04-05T11:01:02.528Z,13.93
2019-04-05T11:03:31.860Z,14.73
2019-04-05T11:06:01.221Z,14.97
2019-04-05T11:08:30.563Z,14.20
2019-04-05T11:10:59.923Z,13.87
2019-04-05T11:13:29.341Z,15.83
2019-04-05T11:15:59.550Z,14.67
2019-04-05T11:18:30.648Z,15.17
2019-04-05T11:20:59.979Z,15.00
2019-04-05T11:23:29.285Z,14.43
2019-04-05T11:25:58.643Z,14.77
2019-04-05T11:28:27.926Z,15.13
2019-04-05T11:30:57.654Z,13.90
2019-04-05T11:33:26.930Z,14.40
2019-04-05T11:35:57.865Z,14.37
2019-04-05T11:38:28.335Z,13.77
2019-04-05T11:40:58.047Z,12.03
2019-04-05T11:43:31.321Z,14.13
2019-04-05T11:46:01.524Z,13.00
2019-04-05T11:48:32.608Z,13.00
2019-04-05T11:51:02.083Z,12.77
2019-04-05T11:53:31.373Z,13.40
2019-04-05T11:56:13.483Z,11.93
2019-04-05T11:58:33.330Z,13.53
2019-04-05T12:01:11.055Z,11.73
2019-04-05T12:03:40.960Z,12.67
2019-04-05T12:06:10.259Z,13.70
2019-04-05T12:08:39.595Z,13.30
2019-04-05T12:11:08.955Z,12.73
2019-04-05T12:13:38.227Z,14.20
2019-04-05T12:16:10.334Z,13.33
2019-04-05T12:18:38.605Z,12.63
2019-04-05T12:21:09.030Z,13.40
2019-04-05T12:23:38.338Z,13.80
2019-04-05T12:26:08.692Z,14.63
2019-04-05T12:28:39.481Z,12.50
2019-04-05T12:31:08.804Z,14.50
2019-04-05T12:33:38.083Z,13.87
2019-04-05T12:36:07.556Z,14.50
2019-04-05T12:38:54.327Z,14.00
2019-04-05T12:41:23.792Z,13.97
2019-04-05T12:43:53.095Z,13.43
2019-04-05T12:46:22.350Z,14.70
2019-04-05T12:48:51.679Z,14.03
2019-04-05T12:51:22.764Z,15.10
2019-04-05T12:53:52.070Z,14.50
2019-04-05T12:56:21.365Z,14.47
2019-04-05T12:58:50.764Z,13.30
2019-04-05T13:01:20.081Z,13.97
2019-04-05T13:03:52.258Z,14.63
2019-04-05T13:06:22.529Z,14.10
2019-04-05T13:08:53.691Z,14.03
2019-04-05T13:11:25.925Z,14.37
2019-04-05T13:13:56.321Z,14.20
2019-04-05T13:16:26.278Z,13.60
2019-04-05T13:18:55.579Z,13.43
2019-04-05T13:21:27.747Z,14.27
2019-04-05T13:23:57.356Z,13.20
2019-04-05T13:26:26.621Z,13.97
2019-04-05T13:28:55.984Z,13.17
2019-04-05T13:31:25.283Z,13.57
2019-04-05T13:33:55.577Z,13.63
2019-04-05T13:36:26.112Z,14.67
2019-04-05T13:38:59.527Z,14.93
2019-04-05T13:41:27.436Z,12.83
2019-04-05T13:43:56.769Z,13.37
2019-04-05T13:46:26.382Z,12.67
2019-04-05T13:48:55.758Z,13.43
2019-04-05T13:51:28.166Z,13.37
2019-04-05T13:53:56.150Z,13.33
2019-04-05T13:56:25.556Z,13.77
2019-04-05T13:58:55.211Z,15.47
2019-04-05T14:01:24.507Z,13.93
2019-04-05T14:03:53.870Z,16.13
2019-04-05T14:06:23.190Z,13.37
2019-04-05T14:08:52.502Z,14.33
2019-04-05T14:11:21.805Z,13.73
2019-04-05T14:13:51.086Z,14.33
2019-04-05T14:16:20.498Z,15.10
2019-04-05T14:18:50.015Z,14.77
2019-04-05T14:21:22.262Z,13.57
2019-04-05T14:23:51.320Z,15.10
2019-04-05T14:26:21.480Z,14.50
2019-04-05T14:28:53.100Z,13.93
2019-04-05T14:31:22.566Z,13.63
2019-04-05T14:33:54.173Z,13.30
2019-04-05T14:36:23.523Z,13.73
2019-04-05T14:38:54.122Z,19.80
2019-04-05T14:41:39.569Z,15.43
2019-04-05T14:44:08.905Z,14.57
2019-04-05T14:46:38.540Z,13.73
2019-04-05T14:49:09.069Z,12.60
2019-04-05T14:51:38.420Z,13.53
2019-04-05T14:54:10.090Z,12.57
2019-04-05T14:56:39.428Z,18.17
2019-04-05T14:59:08.709Z,13.40
2019-04-05T15:01:38.405Z,13.33
2019-04-05T15:04:11.917Z,12.53
2019-04-05T15:06:41.692Z,13.10
2019-04-05T15:09:11.326Z,12.47
2019-04-05T15:11:42.687Z,13.07
2019-04-05T15:14:14.000Z,12.83
2019-04-05T15:16:45.051Z,13.17
2019-04-05T15:19:16.871Z,12.63
2019-04-05T15:21:46.720Z,12.57
2019-04-05T15:24:18.266Z,16.87
2019-04-05T15:26:49.459Z,20.23
2019-04-05T15:29:18.732Z,13.47
2019-04-05T15:31:48.340Z,16.13
2019-04-05T15:34:17.641Z,14.57
2019-04-05T15:36:46.998Z,14.80
2019-04-05T15:39:16.325Z,13.77
2019-04-05T15:41:45.637Z,14.17
2019-04-05T15:44:15.026Z,14.00
2019-04-05T15:46:45.670Z,12.67
2019-04-05T15:49:14.975Z,12.63
2019-04-05T15:51:45.155Z,12.63
2019-04-05T15:54:14.686Z,12.80
2019-04-05T15:56:44.167Z,12.27
2019-04-05T15:59:13.519Z,13.60
2019-04-05T16:01:42.789Z,13.43
2019-04-05T16:04:12.605Z,13.07
2019-04-05T16:06:41.893Z,13.60
2019-04-05T16:09:14.999Z,14.23
2019-04-05T16:11:44.315Z,13.97
2019-04-05T16:14:13.709Z,13.13
2019-04-05T16:16:43.008Z,12.93
2019-04-05T16:19:12.286Z,13.87
2019-04-05T16:21:41.620Z,14.03
2019-04-05T16:24:10.968Z,13.87
2019-04-05T16:26:40.349Z,13.90
2019-04-05T16:29:09.705Z,15.03
2019-04-05T16:31:39.055Z,21.60
2019-04-05T16:34:09.638Z,25.20
2019-04-05T16:36:38.958Z,15.13
2019-04-05T16:39:14.627Z,12.97
2019-04-05T16:41:44.316Z,13.40
2019-04-05T16:44:13.716Z,13.63
2019-04-05T16:46:43.008Z,15.10
2019-04-05T16:49:12.299Z,13.17
2019-04-05T16:51:42.803Z,14.30
2019-04-05T16:54:12.148Z,19.07
2019-04-05T16:56:41.449Z,17.13
2019-04-05T16:59:10.750Z,13.07
2019-04-05T17:01:41.902Z,15.03
2019-04-05T17:04:11.403Z,13.40
2019-04-05T17:06:40.839Z,12.90
2019-04-05T17:09:10.166Z,17.43
2019-04-05T17:11:39.486Z,13.87
2019-04-05T17:14:08.793Z,14.23
2019-04-05T17:16:38.110Z,13.10
2019-04-05T17:19:07.452Z,13.83
2019-04-05T17:21:36.761Z,13.07
2019-04-05T17:24:06.383Z,13.53
2019-04-05T17:26:35.732Z,13.03
2019-04-05T17:29:05.063Z,12.77
2019-04-05T17:31:34.406Z,13.87
2019-04-05T17:34:03.773Z,12.23
2019-04-05T17:36:33.042Z,12.47
2019-04-05T17:39:04.491Z,13.87
2019-04-05T17:41:33.793Z,13.60
2019-04-05T17:44:03.123Z,12.97
2019-04-05T17:46:33.904Z,13.27
2019-04-05T17:49:03.210Z,13.83
2019-04-05T17:51:32.698Z,13.37
2019-04-05T17:54:02.044Z,13.57
2019-04-05T17:56:31.309Z,14.60
2019-04-05T17:59:01.226Z,16.13
2019-04-05T18:01:30.551Z,16.60
2019-04-05T18:03:59.877Z,14.50
2019-04-05T18:06:29.190Z,14.57
2019-04-05T18:08:58.489Z,14.33
2019-04-05T18:11:30.692Z,14.83
2019-04-05T18:14:01.182Z,13.97
2019-04-05T18:16:30.488Z,15.63
2019-04-05T18:18:59.797Z,14.13
2019-04-05T18:21:29.110Z,14.70
2019-04-05T18:23:58.391Z,14.13
2019-04-05T18:26:27.667Z,15.23
2019-04-05T18:28:58.460Z,16.67
2019-04-05T18:31:27.761Z,15.20
2019-04-05T18:33:57.064Z,15.27
2019-04-05T18:36:26.355Z,15.27
2019-04-05T18:38:55.795Z,13.87
2019-04-05T18:41:25.157Z,15.03
2019-04-05T18:43:54.440Z,15.17
2019-04-05T18:46:23.756Z,15.90
2019-04-05T18:48:53.035Z,15.27
2019-04-05T18:51:22.331Z,15.57
2019-04-05T18:53:51.631Z,15.20
2019-04-05T18:56:20.953Z,15.60
2019-04-05T18:58:50.234Z,17.77
2019-04-05T19:01:19.535Z,26.87
2019-04-05T19:03:48.831Z,17.97
2019-04-05T19:06:18.125Z,17.13
2019-04-05T19:08:47.438Z,21.30
2019-04-05T19:11:16.757Z,22.43
2019-04-05T19:13:46.067Z,21.60
2019-04-05T19:16:15.354Z,19.93
2019-04-05T19:18:44.643Z,18.20
2019-04-05T19:21:13.965Z,17.13
2019-04-05T19:23:50.782Z,18.13
2019-04-05T19:26:15.739Z,16.33
2019-04-05T19:28:45.879Z,16.57
2019-04-05T19:48:57.202Z,17.77
2019-04-05T19:51:26.554Z,20.33
2019-04-05T19:54:01.236Z,17.87
2019-04-05T19:56:26.942Z,17.70
2019-04-05T19:58:56.267Z,18.53
2019-04-05T20:01:25.514Z,17.10
2019-04-05T20:03:55.904Z,21.50
2019-04-05T20:06:26.367Z,18.10
2019-04-05T20:08:57.371Z,20.33
2019-04-05T20:11:28.533Z,18.43
2019-04-05T20:13:58.911Z,17.80
2019-04-05T20:16:28.690Z,17.97
2019-04-05T20:18:59.559Z,17.67
2019-04-05T20:21:32.489Z,18.23
2019-04-05T20:24:13.381Z,32.10
2019-04-05T20:26:32.976Z,22.43
2019-04-05T20:29:02.282Z,18.00
2019-04-05T20:31:31.601Z,17.20
2019-04-05T20:34:00.951Z,17.47
2019-04-05T20:36:30.326Z,18.03
2019-04-05T20:39:00.258Z,18.20
2019-04-05T20:41:29.719Z,17.63
2019-04-05T20:43:59.017Z,17.73
2019-04-05T20:46:28.375Z,17.80
2019-04-05T20:48:57.719Z,17.30
2019-04-05T20:51:27.232Z,19.00
2019-04-05T20:53:56.549Z,17.63
2019-04-05T20:56:25.865Z,17.30
2019-04-05T20:58:55.343Z,17.10
2019-04-05T21:01:24.694Z,18.33
2019-04-05T21:03:54.391Z,18.50
2019-04-05T21:06:24.131Z,18.40
2019-04-05T21:08:53.809Z,17.93
2019-04-05T21:11:27.059Z,17.93
2019-04-05T21:13:55.766Z,17.80
2019-04-05T21:16:25.087Z,17.87
2019-04-05T21:18:54.391Z,17.73
2019-04-05T21:21:23.749Z,17.73
2019-04-05T21:23:53.047Z,18.87
2019-04-05T21:26:22.363Z,17.27
2019-04-05T21:28:52.757Z,17.83
2019-04-05T21:31:22.022Z,18.17
2019-04-05T21:33:51.339Z,18.73
2019-04-05T21:36:20.654Z,18.03
2019-04-05T21:38:50.995Z,20.03
2019-04-05T21:41:20.325Z,18.77
2019-04-05T21:43:49.666Z,19.77
2019-04-05T21:46:19.020Z,18.93
2019-04-05T21:48:48.628Z,18.40
2019-04-05T21:51:17.954Z,18.73
2019-04-05T21:53:47.763Z,19.73
2019-04-05T21:56:17.169Z,18.77
2019-04-05T21:58:46.484Z,20.97
2019-04-05T22:01:15.795Z,19.93
2019-04-05T22:03:46.635Z,20.67
2019-04-05T22:06:16.023Z,19.83
2019-04-05T22:08:45.484Z,20.07
2019-04-05T22:11:14.836Z,20.27
2019-04-05T22:13:44.139Z,20.67
2019-04-05T22:16:13.430Z,21.07
2019-04-05T22:18:42.778Z,21.03
2019-04-05T22:21:13.526Z,20.70
2019-04-05T22:23:42.860Z,21.07
2019-04-05T22:26:12.166Z,20.63
2019-04-05T22:28:41.589Z,22.10
2019-04-05T22:31:10.888Z,21.13
2019-04-05T22:33:42.102Z,20.63
2019-04-05T22:36:11.422Z,22.17
2019-04-05T22:38:40.735Z,21.23
2019-04-05T22:41:10.065Z,21.20
2019-04-05T22:43:39.364Z,21.43
2019-04-05T22:46:08.656Z,22.27
2019-04-05T22:48:37.990Z,22.03
2019-04-05T22:51:07.270Z,20.63
2019-04-05T22:53:36.601Z,21.33
2019-04-05T22:56:06.474Z,22.17
2019-04-05T22:58:35.823Z,21.53
2019-04-05T23:01:05.215Z,22.03
2019-04-05T23:03:34.503Z,21.40
2019-04-05T23:06:03.843Z,22.23
2019-04-05T23:08:33.154Z,21.63
2019-04-05T23:11:04.309Z,22.67
2019-04-05T23:13:33.626Z,22.53
2019-04-05T23:16:02.935Z,23.20
2019-04-05T23:18:32.202Z,21.47
2019-04-05T23:21:01.517Z,22.10
2019-04-05T23:23:30.832Z,22.30
2019-04-05T23:26:00.129Z,23.00
2019-04-05T23:28:29.513Z,21.10
2019-04-05T23:30:59.248Z,21.83
2019-04-05T23:33:28.591Z,21.40
2019-04-05T23:35:57.942Z,22.57
2019-04-05T23:38:27.283Z,21.33
2019-04-05T23:40:56.626Z,22.80
2019-04-05T23:43:25.926Z,22.67
2019-04-05T23:45:55.281Z,20.93
2019-04-05T23:48:24.635Z,21.73
2019-04-05T23:50:53.956Z,21.73
2019-04-05T23:53:23.282Z,22.83
2019-04-05T23:55:52.606Z,21.20
2019-04-05T23:58:21.930Z,21.60
